sensor_id;sensor_type;location;lat;lon;timestamp;P1;durP1;ratioP1;P2;durP2;ratioP2
67554;SDS011;54385;53.516;49.456;2023-04-25T00:00:41;6.00;;;3.58;;
67554;SDS011;54385;53.516;49.456;2023-04-25T00:03:07;10.98;;;3.85;;
67554;SDS011;54385;53.516;49.456;2023-04-25T00:05:35;6.00;;;3.38;;
67554;SDS011;54385;53.516;49.456;2023-04-25T00:08:03;6.53;;;3.10;;
67554;SDS011;54385;53.516;49.456;2023-04-25T00:10:31;6.25;;;2.80;;
67554;SDS011;54385;53.516;49.456;2023-04-25T00:12:57;7.32;;;3.20;;
67554;SDS011;54385;53.516;49.456;2023-04-25T00:15:23;12.13;;;2.92;;
67554;SDS011;54385;53.516;49.456;2023-04-25T00:17:50;8.35;;;3.40;;
67554;SDS011;54385;53.516;49.456;2023-04-25T00:20:18;8.73;;;2.85;;
67554;SDS011;54385;53.516;49.456;2023-04-25T00:22:44;7.78;;;3.20;;
67554;SDS011;54385;53.516;49.456;2023-04-25T00:25:11;7.50;;;3.92;;
67554;SDS011;54385;53.516;49.456;2023-04-25T00:27:37;6.63;;;3.20;;
67554;SDS011;54385;53.516;49.456;2023-04-25T00:30:04;8.93;;;3.03;;
67554;SDS011;54385;53.516;49.456;2023-04-25T00:32:31;7.57;;;3.15;;
67554;SDS011;54385;53.516;49.456;2023-04-25T00:34:58;8.70;;;3.45;;
67554;SDS011;54385;53.516;49.456;2023-04-25T00:37:24;12.05;;;4.40;;
67554;SDS011;54385;53.516;49.456;2023-04-25T00:39:50;11.27;;;3.67;;
67554;SDS011;54385;53.516;49.456;2023-04-25T00:42:19;12.13;;;3.35;;
67554;SDS011;54385;53.516;49.456;2023-04-25T00:44:45;9.93;;;3.65;;
67554;SDS011;54385;53.516;49.456;2023-04-25T00:47:13;12.07;;;3.90;;
67554;SDS011;54385;53.516;49.456;2023-04-25T00:49:40;7.15;;;3.42;;
67554;SDS011;54385;53.516;49.456;2023-04-25T00:52:06;6.47;;;3.60;;
67554;SDS011;54385;53.516;49.456;2023-04-25T00:54:33;10.43;;;3.90;;
67554;SDS011;54385;53.516;49.456;2023-04-25T00:56:59;9.77;;;3.40;;
67554;SDS011;54385;53.516;49.456;2023-04-25T00:59:27;9.68;;;3.55;;
67554;SDS011;54385;53.516;49.456;2023-04-25T01:01:55;8.75;;;3.72;;
67554;SDS011;54385;53.516;49.456;2023-04-25T01:04:22;17.50;;;4.13;;
67554;SDS011;54385;53.516;49.456;2023-04-25T01:06:49;10.38;;;3.42;;
67554;SDS011;54385;53.516;49.456;2023-04-25T01:09:16;7.60;;;3.45;;
67554;SDS011;54385;53.516;49.456;2023-04-25T01:11:42;10.77;;;3.70;;
67554;SDS011;54385;53.516;49.456;2023-04-25T01:14:09;9.57;;;3.20;;
67554;SDS011;54385;53.516;49.456;2023-04-25T01:16:35;13.85;;;3.78;;
67554;SDS011;54385;53.516;49.456;2023-04-25T01:19:04;13.27;;;4.05;;
67554;SDS011;54385;53.516;49.456;2023-04-25T01:21:36;7.53;;;3.05;;
67554;SDS011;54385;53.516;49.456;2023-04-25T01:24:03;4.80;;;3.38;;
67554;SDS011;54385;53.516;49.456;2023-04-25T01:26:30;6.13;;;3.25;;
67554;SDS011;54385;53.516;49.456;2023-04-25T01:28:57;33.60;;;4.82;;
67554;SDS011;54385;53.516;49.456;2023-04-25T01:31:24;10.65;;;3.50;;
67554;SDS011;54385;53.516;49.456;2023-04-25T01:33:52;8.82;;;3.22;;
67554;SDS011;54385;53.516;49.456;2023-04-25T01:36:19;10.68;;;3.50;;
67554;SDS011;54385;53.516;49.456;2023-04-25T01:38:47;7.60;;;3.70;;
67554;SDS011;54385;53.516;49.456;2023-04-25T01:41:14;7.30;;;3.00;;
67554;SDS011;54385;53.516;49.456;2023-04-25T01:43:41;7.18;;;2.97;;
67554;SDS011;54385;53.516;49.456;2023-04-25T01:46:07;7.07;;;3.20;;
67554;SDS011;54385;53.516;49.456;2023-04-25T01:48:34;11.25;;;3.47;;
67554;SDS011;54385;53.516;49.456;2023-04-25T01:51:00;8.98;;;3.35;;
67554;SDS011;54385;53.516;49.456;2023-04-25T01:53:27;10.88;;;3.08;;
67554;SDS011;54385;53.516;49.456;2023-04-25T01:55:53;11.15;;;3.25;;
67554;SDS011;54385;53.516;49.456;2023-04-25T01:58:20;23.85;;;4.05;;
67554;SDS011;54385;53.516;49.456;2023-04-25T02:00:46;7.70;;;2.88;;
67554;SDS011;54385;53.516;49.456;2023-04-25T02:03:12;7.47;;;2.63;;
67554;SDS011;54385;53.516;49.456;2023-04-25T02:05:39;12.65;;;3.78;;
67554;SDS011;54385;53.516;49.456;2023-04-25T02:08:06;9.70;;;3.00;;
67554;SDS011;54385;53.516;49.456;2023-04-25T02:10:35;7.13;;;2.95;;
67554;SDS011;54385;53.516;49.456;2023-04-25T02:13:02;8.75;;;3.25;;
67554;SDS011;54385;53.516;49.456;2023-04-25T02:15:30;9.88;;;3.20;;
67554;SDS011;54385;53.516;49.456;2023-04-25T02:17:56;4.63;;;2.72;;
67554;SDS011;54385;53.516;49.456;2023-04-25T02:20:24;7.15;;;2.95;;
67554;SDS011;54385;53.516;49.456;2023-04-25T02:22:51;8.25;;;2.88;;
67554;SDS011;54385;53.516;49.456;2023-04-25T02:25:23;9.70;;;3.40;;
67554;SDS011;54385;53.516;49.456;2023-04-25T02:27:51;8.75;;;3.58;;
67554;SDS011;54385;53.516;49.456;2023-04-25T02:30:20;11.20;;;3.22;;
67554;SDS011;54385;53.516;49.456;2023-04-25T02:32:50;6.28;;;2.80;;
67554;SDS011;54385;53.516;49.456;2023-04-25T02:35:16;8.18;;;3.30;;
67554;SDS011;54385;53.516;49.456;2023-04-25T02:37:43;10.80;;;3.35;;
67554;SDS011;54385;53.516;49.456;2023-04-25T02:40:09;6.05;;;3.03;;
67554;SDS011;54385;53.516;49.456;2023-04-25T02:42:36;9.07;;;3.20;;
67554;SDS011;54385;53.516;49.456;2023-04-25T02:45:03;7.43;;;3.63;;
67554;SDS011;54385;53.516;49.456;2023-04-25T02:47:30;52.60;;;6.70;;
67554;SDS011;54385;53.516;49.456;2023-04-25T02:49:56;8.80;;;3.17;;
67554;SDS011;54385;53.516;49.456;2023-04-25T02:52:23;9.23;;;3.78;;
67554;SDS011;54385;53.516;49.456;2023-04-25T02:54:50;12.82;;;3.88;;
67554;SDS011;54385;53.516;49.456;2023-04-25T02:57:16;7.25;;;3.50;;
67554;SDS011;54385;53.516;49.456;2023-04-25T02:59:43;8.52;;;3.60;;
67554;SDS011;54385;53.516;49.456;2023-04-25T03:02:09;9.13;;;3.40;;
67554;SDS011;54385;53.516;49.456;2023-04-25T03:04:36;10.52;;;3.47;;
67554;SDS011;54385;53.516;49.456;2023-04-25T03:07:02;17.13;;;4.25;;
67554;SDS011;54385;53.516;49.456;2023-04-25T03:09:30;9.27;;;3.70;;
67554;SDS011;54385;53.516;49.456;2023-04-25T03:11:56;10.23;;;3.33;;
67554;SDS011;54385;53.516;49.456;2023-04-25T03:14:22;8.93;;;3.45;;
67554;SDS011;54385;53.516;49.456;2023-04-25T03:16:49;11.85;;;3.90;;
67554;SDS011;54385;53.516;49.456;2023-04-25T03:19:15;10.80;;;3.60;;
67554;SDS011;54385;53.516;49.456;2023-04-25T03:21:42;7.03;;;3.15;;
67554;SDS011;54385;53.516;49.456;2023-04-25T03:24:10;10.35;;;3.58;;
67554;SDS011;54385;53.516;49.456;2023-04-25T03:26:39;13.18;;;4.28;;
67554;SDS011;54385;53.516;49.456;2023-04-25T03:29:06;11.57;;;3.55;;
67554;SDS011;54385;53.516;49.456;2023-04-25T03:31:32;5.55;;;2.97;;
67554;SDS011;54385;53.516;49.456;2023-04-25T03:33:58;8.48;;;3.28;;
67554;SDS011;54385;53.516;49.456;2023-04-25T03:36:25;8.27;;;3.33;;
67554;SDS011;54385;53.516;49.456;2023-04-25T03:38:51;7.63;;;3.85;;
67554;SDS011;54385;53.516;49.456;2023-04-25T03:41:17;8.82;;;3.80;;
67554;SDS011;54385;53.516;49.456;2023-04-25T03:43:47;8.48;;;3.53;;
67554;SDS011;54385;53.516;49.456;2023-04-25T03:46:14;13.55;;;3.60;;
67554;SDS011;54385;53.516;49.456;2023-04-25T03:48:40;6.28;;;3.75;;
67554;SDS011;54385;53.516;49.456;2023-04-25T03:51:07;8.90;;;3.63;;
67554;SDS011;54385;53.516;49.456;2023-04-25T03:53:38;12.68;;;4.72;;
67554;SDS011;54385;53.516;49.456;2023-04-25T03:56:06;10.10;;;3.85;;
67554;SDS011;54385;53.516;49.456;2023-04-25T03:58:33;9.85;;;4.20;;
67554;SDS011;54385;53.516;49.456;2023-04-25T04:01:14;8.00;;;4.20;;
67554;SDS011;54385;53.516;49.456;2023-04-25T04:03:41;11.43;;;4.60;;
67554;SDS011;54385;53.516;49.456;2023-04-25T04:06:07;10.10;;;4.93;;
67554;SDS011;54385;53.516;49.456;2023-04-25T04:08:40;12.98;;;4.22;;
67554;SDS011;54385;53.516;49.456;2023-04-25T04:11:15;12.52;;;4.55;;
67554;SDS011;54385;53.516;49.456;2023-04-25T04:13:41;13.13;;;4.90;;
67554;SDS011;54385;53.516;49.456;2023-04-25T04:16:34;12.00;;;4.22;;
67554;SDS011;54385;53.516;49.456;2023-04-25T04:19:04;10.02;;;4.65;;
67554;SDS011;54385;53.516;49.456;2023-04-25T04:21:36;10.15;;;4.15;;
67554;SDS011;54385;53.516;49.456;2023-04-25T04:24:06;13.77;;;4.90;;
67554;SDS011;54385;53.516;49.456;2023-04-25T04:26:43;19.52;;;5.10;;
67554;SDS011;54385;53.516;49.456;2023-04-25T04:29:21;15.65;;;4.30;;
67554;SDS011;54385;53.516;49.456;2023-04-25T04:34:44;12.00;;;5.00;;
67554;SDS011;54385;53.516;49.456;2023-04-25T04:37:14;10.93;;;4.70;;
67554;SDS011;54385;53.516;49.456;2023-04-25T04:39:45;13.23;;;4.63;;
67554;SDS011;54385;53.516;49.456;2023-04-25T04:42:17;16.27;;;4.60;;
67554;SDS011;54385;53.516;49.456;2023-04-25T04:44:53;11.32;;;4.07;;
67554;SDS011;54385;53.516;49.456;2023-04-25T04:50:23;12.75;;;4.20;;
67554;SDS011;54385;53.516;49.456;2023-04-25T04:53:05;13.85;;;4.40;;
67554;SDS011;54385;53.516;49.456;2023-04-25T04:58:26;17.42;;;3.85;;
67554;SDS011;54385;53.516;49.456;2023-04-25T05:01:05;15.95;;;4.93;;
67554;SDS011;54385;53.516;49.456;2023-04-25T05:04:10;12.57;;;4.07;;
67554;SDS011;54385;53.516;49.456;2023-04-25T05:06:58;10.90;;;3.90;;
67554;SDS011;54385;53.516;49.456;2023-04-25T05:09:53;13.15;;;4.00;;
67554;SDS011;54385;53.516;49.456;2023-04-25T05:12:51;11.90;;;3.63;;
67554;SDS011;54385;53.516;49.456;2023-04-25T05:15:24;14.38;;;3.72;;
67554;SDS011;54385;53.516;49.456;2023-04-25T05:18:04;12.95;;;4.30;;
67554;SDS011;54385;53.516;49.456;2023-04-25T05:20:49;12.30;;;4.45;;
67554;SDS011;54385;53.516;49.456;2023-04-25T05:23:26;7.00;;;3.60;;
67554;SDS011;54385;53.516;49.456;2023-04-25T05:26:01;8.50;;;3.40;;
67554;SDS011;54385;53.516;49.456;2023-04-25T05:28:46;11.85;;;3.75;;
67554;SDS011;54385;53.516;49.456;2023-04-25T05:31:17;12.15;;;4.10;;
67554;SDS011;54385;53.516;49.456;2023-04-25T05:33:44;15.90;;;3.78;;
67554;SDS011;54385;53.516;49.456;2023-04-25T05:36:12;9.00;;;3.67;;
67554;SDS011;54385;53.516;49.456;2023-04-25T05:38:39;7.60;;;3.40;;
67554;SDS011;54385;53.516;49.456;2023-04-25T05:41:08;19.75;;;4.15;;
67554;SDS011;54385;53.516;49.456;2023-04-25T05:43:34;19.80;;;4.38;;
67554;SDS011;54385;53.516;49.456;2023-04-25T05:46:11;12.57;;;4.15;;
67554;SDS011;54385;53.516;49.456;2023-04-25T05:49:00;12.68;;;3.65;;
67554;SDS011;54385;53.516;49.456;2023-04-25T05:54:24;19.83;;;4.43;;
67554;SDS011;54385;53.516;49.456;2023-04-25T05:57:03;17.92;;;4.70;;
67554;SDS011;54385;53.516;49.456;2023-04-25T05:59:30;29.45;;;4.90;;
67554;SDS011;54385;53.516;49.456;2023-04-25T06:01:56;23.42;;;4.95;;
67554;SDS011;54385;53.516;49.456;2023-04-25T06:04:23;12.88;;;3.88;;
67554;SDS011;54385;53.516;49.456;2023-04-25T06:06:49;12.18;;;3.55;;
67554;SDS011;54385;53.516;49.456;2023-04-25T06:09:23;11.70;;;3.40;;
67554;SDS011;54385;53.516;49.456;2023-04-25T06:11:50;14.43;;;5.88;;
67554;SDS011;54385;53.516;49.456;2023-04-25T06:14:17;11.18;;;3.63;;
67554;SDS011;54385;53.516;49.456;2023-04-25T06:16:46;10.85;;;3.55;;
67554;SDS011;54385;53.516;49.456;2023-04-25T06:19:12;20.85;;;4.32;;
67554;SDS011;54385;53.516;49.456;2023-04-25T06:21:39;19.55;;;3.97;;
67554;SDS011;54385;53.516;49.456;2023-04-25T06:24:08;15.43;;;3.55;;
67554;SDS011;54385;53.516;49.456;2023-04-25T06:26:35;11.63;;;3.88;;
67554;SDS011;54385;53.516;49.456;2023-04-25T06:29:05;7.55;;;3.33;;
67554;SDS011;54385;53.516;49.456;2023-04-25T06:31:32;20.63;;;3.88;;
67554;SDS011;54385;53.516;49.456;2023-04-25T06:33:59;19.13;;;4.57;;
67554;SDS011;54385;53.516;49.456;2023-04-25T06:36:29;29.85;;;5.15;;
67554;SDS011;54385;53.516;49.456;2023-04-25T06:38:58;6.60;;;2.78;;
67554;SDS011;54385;53.516;49.456;2023-04-25T06:41:25;13.75;;;4.07;;
67554;SDS011;54385;53.516;49.456;2023-04-25T06:43:51;7.15;;;3.58;;
67554;SDS011;54385;53.516;49.456;2023-04-25T06:46:18;9.90;;;3.97;;
67554;SDS011;54385;53.516;49.456;2023-04-25T06:48:44;8.68;;;3.35;;
67554;SDS011;54385;53.516;49.456;2023-04-25T06:51:13;9.75;;;3.95;;
67554;SDS011;54385;53.516;49.456;2023-04-25T06:53:40;8.52;;;3.72;;
67554;SDS011;54385;53.516;49.456;2023-04-25T06:56:06;9.80;;;2.92;;
67554;SDS011;54385;53.516;49.456;2023-04-25T06:58:36;15.75;;;5.60;;
67554;SDS011;54385;53.516;49.456;2023-04-25T07:01:02;8.10;;;3.72;;
67554;SDS011;54385;53.516;49.456;2023-04-25T07:03:29;9.68;;;3.50;;
67554;SDS011;54385;53.516;49.456;2023-04-25T07:05:56;7.80;;;3.88;;
67554;SDS011;54385;53.516;49.456;2023-04-25T07:08:23;8.88;;;4.32;;
67554;SDS011;54385;53.516;49.456;2023-04-25T07:10:50;9.48;;;3.95;;
67554;SDS011;54385;53.516;49.456;2023-04-25T07:13:16;13.80;;;4.07;;
67554;SDS011;54385;53.516;49.456;2023-04-25T07:15:43;10.45;;;4.18;;
67554;SDS011;54385;53.516;49.456;2023-04-25T07:18:10;8.25;;;4.97;;
67554;SDS011;54385;53.516;49.456;2023-04-25T07:20:36;12.82;;;3.97;;
67554;SDS011;54385;53.516;49.456;2023-04-25T07:23:03;15.60;;;4.93;;
67554;SDS011;54385;53.516;49.456;2023-04-25T07:25:36;25.20;;;5.55;;
67554;SDS011;54385;53.516;49.456;2023-04-25T07:28:03;14.38;;;4.65;;
67554;SDS011;54385;53.516;49.456;2023-04-25T07:30:30;11.23;;;4.82;;
67554;SDS011;54385;53.516;49.456;2023-04-25T07:33:00;10.75;;;3.75;;
67554;SDS011;54385;53.516;49.456;2023-04-25T07:35:31;11.85;;;4.32;;
67554;SDS011;54385;53.516;49.456;2023-04-25T07:37:59;15.30;;;4.53;;
67554;SDS011;54385;53.516;49.456;2023-04-25T07:40:28;11.32;;;3.40;;
67554;SDS011;54385;53.516;49.456;2023-04-25T07:42:55;9.27;;;3.67;;
67554;SDS011;54385;53.516;49.456;2023-04-25T07:45:22;9.60;;;3.10;;
67554;SDS011;54385;53.516;49.456;2023-04-25T07:47:51;10.45;;;2.88;;
67554;SDS011;54385;53.516;49.456;2023-04-25T07:50:19;9.40;;;3.45;;
67554;SDS011;54385;53.516;49.456;2023-04-25T07:52:45;17.00;;;8.32;;
67554;SDS011;54385;53.516;49.456;2023-04-25T07:55:12;12.68;;;4.38;;
67554;SDS011;54385;53.516;49.456;2023-04-25T07:57:41;6.20;;;2.80;;
67554;SDS011;54385;53.516;49.456;2023-04-25T08:00:16;7.45;;;2.80;;
67554;SDS011;54385;53.516;49.456;2023-04-25T08:02:46;8.02;;;2.78;;
67554;SDS011;54385;53.516;49.456;2023-04-25T08:05:13;9.50;;;2.65;;
67554;SDS011;54385;53.516;49.456;2023-04-25T08:07:44;9.93;;;2.47;;
67554;SDS011;54385;53.516;49.456;2023-04-25T08:10:14;5.18;;;2.53;;
67554;SDS011;54385;53.516;49.456;2023-04-25T08:12:48;17.58;;;10.93;;
67554;SDS011;54385;53.516;49.456;2023-04-25T08:15:17;9.23;;;3.38;;
67554;SDS011;54385;53.516;49.456;2023-04-25T08:17:47;6.68;;;3.30;;
67554;SDS011;54385;53.516;49.456;2023-04-25T08:20:21;6.07;;;2.90;;
67554;SDS011;54385;53.516;49.456;2023-04-25T08:22:48;10.82;;;4.03;;
67554;SDS011;54385;53.516;49.456;2023-04-25T08:25:14;9.80;;;2.90;;
67554;SDS011;54385;53.516;49.456;2023-04-25T08:27:41;11.57;;;2.45;;
67554;SDS011;54385;53.516;49.456;2023-04-25T08:30:32;6.75;;;2.47;;
67554;SDS011;54385;53.516;49.456;2023-04-25T08:32:59;12.13;;;2.85;;
67554;SDS011;54385;53.516;49.456;2023-04-25T08:35:29;7.45;;;2.35;;
67554;SDS011;54385;53.516;49.456;2023-04-25T08:38:04;9.10;;;3.78;;
67554;SDS011;54385;53.516;49.456;2023-04-25T08:40:37;9.38;;;4.75;;
67554;SDS011;54385;53.516;49.456;2023-04-25T08:43:06;8.05;;;3.65;;
67554;SDS011;54385;53.516;49.456;2023-04-25T08:45:40;8.05;;;2.80;;
67554;SDS011;54385;53.516;49.456;2023-04-25T08:48:11;9.38;;;2.90;;
67554;SDS011;54385;53.516;49.456;2023-04-25T08:50:49;10.98;;;4.15;;
67554;SDS011;54385;53.516;49.456;2023-04-25T08:53:18;9.32;;;3.08;;
67554;SDS011;54385;53.516;49.456;2023-04-25T08:55:50;9.15;;;3.03;;
67554;SDS011;54385;53.516;49.456;2023-04-25T08:58:19;5.13;;;2.80;;
67554;SDS011;54385;53.516;49.456;2023-04-25T09:00:46;8.60;;;2.80;;
67554;SDS011;54385;53.516;49.456;2023-04-25T09:03:15;8.65;;;4.07;;
67554;SDS011;54385;53.516;49.456;2023-04-25T09:05:45;9.70;;;3.47;;
67554;SDS011;54385;53.516;49.456;2023-04-25T09:08:11;15.18;;;6.10;;
67554;SDS011;54385;53.516;49.456;2023-04-25T09:10:41;11.05;;;3.17;;
67554;SDS011;54385;53.516;49.456;2023-04-25T09:13:08;7.88;;;3.55;;
67554;SDS011;54385;53.516;49.456;2023-04-25T09:15:48;10.40;;;3.70;;
67554;SDS011;54385;53.516;49.456;2023-04-25T09:21:04;11.73;;;4.53;;
67554;SDS011;54385;53.516;49.456;2023-04-25T09:23:43;10.23;;;4.78;;
67554;SDS011;54385;53.516;49.456;2023-04-25T09:26:15;11.88;;;6.13;;
67554;SDS011;54385;53.516;49.456;2023-04-25T09:28:45;10.10;;;4.10;;
67554;SDS011;54385;53.516;49.456;2023-04-25T09:31:23;15.75;;;5.05;;
67554;SDS011;54385;53.516;49.456;2023-04-25T09:34:00;9.88;;;3.75;;
67554;SDS011;54385;53.516;49.456;2023-04-25T09:36:30;11.02;;;3.25;;
67554;SDS011;54385;53.516;49.456;2023-04-25T09:38:57;10.65;;;3.45;;
67554;SDS011;54385;53.516;49.456;2023-04-25T09:41:27;9.10;;;3.10;;
67554;SDS011;54385;53.516;49.456;2023-04-25T09:43:56;7.50;;;3.25;;
67554;SDS011;54385;53.516;49.456;2023-04-25T09:46:24;4.47;;;2.25;;
67554;SDS011;54385;53.516;49.456;2023-04-25T09:49:07;5.93;;;2.65;;
67554;SDS011;54385;53.516;49.456;2023-04-25T09:51:36;6.80;;;2.08;;
67554;SDS011;54385;53.516;49.456;2023-04-25T09:54:05;6.78;;;2.83;;
67554;SDS011;54385;53.516;49.456;2023-04-25T09:56:31;6.05;;;2.42;;
67554;SDS011;54385;53.516;49.456;2023-04-25T09:59:03;7.65;;;2.20;;
67554;SDS011;54385;53.516;49.456;2023-04-25T10:01:31;4.63;;;2.33;;
67554;SDS011;54385;53.516;49.456;2023-04-25T10:03:58;4.35;;;2.10;;
67554;SDS011;54385;53.516;49.456;2023-04-25T10:06:29;5.32;;;1.95;;
67554;SDS011;54385;53.516;49.456;2023-04-25T10:08:56;5.15;;;2.42;;
67554;SDS011;54385;53.516;49.456;2023-04-25T10:11:41;8.43;;;2.15;;
67554;SDS011;54385;53.516;49.456;2023-04-25T10:14:15;7.28;;;2.47;;
67554;SDS011;54385;53.516;49.456;2023-04-25T10:16:43;3.85;;;1.98;;
67554;SDS011;54385;53.516;49.456;2023-04-25T10:19:22;4.68;;;2.13;;
67554;SDS011;54385;53.516;49.456;2023-04-25T10:24:34;6.72;;;2.63;;
67554;SDS011;54385;53.516;49.456;2023-04-25T10:27:04;6.45;;;2.25;;
67554;SDS011;54385;53.516;49.456;2023-04-25T10:29:40;5.07;;;2.63;;
67554;SDS011;54385;53.516;49.456;2023-04-25T10:33:03;5.88;;;2.22;;
67554;SDS011;54385;53.516;49.456;2023-04-25T10:36:15;8.70;;;3.20;;
67554;SDS011;54385;53.516;49.456;2023-04-25T10:41:25;7.07;;;2.50;;
67554;SDS011;54385;53.516;49.456;2023-04-25T10:44:01;4.50;;;2.20;;
67554;SDS011;54385;53.516;49.456;2023-04-25T10:46:39;8.77;;;2.75;;
67554;SDS011;54385;53.516;49.456;2023-04-25T10:49:34;9.40;;;2.95;;
67554;SDS011;54385;53.516;49.456;2023-04-25T10:54:55;6.97;;;2.85;;
67554;SDS011;54385;53.516;49.456;2023-04-25T10:57:39;7.40;;;3.13;;
67554;SDS011;54385;53.516;49.456;2023-04-25T11:02:47;6.50;;;2.65;;
67554;SDS011;54385;53.516;49.456;2023-04-25T11:05:33;7.47;;;2.50;;
67554;SDS011;54385;53.516;49.456;2023-04-25T11:08:11;14.77;;;2.97;;
67554;SDS011;54385;53.516;49.456;2023-04-25T11:10:45;6.03;;;2.95;;
67554;SDS011;54385;53.516;49.456;2023-04-25T11:13:38;5.05;;;2.72;;
67554;SDS011;54385;53.516;49.456;2023-04-25T11:16:09;10.48;;;4.35;;
67554;SDS011;54385;53.516;49.456;2023-04-25T11:21:48;4.78;;;2.25;;
67554;SDS011;54385;53.516;49.456;2023-04-25T11:24:25;5.15;;;2.35;;
67554;SDS011;54385;53.516;49.456;2023-04-25T11:30:53;12.60;;;3.65;;
67554;SDS011;54385;53.516;49.456;2023-04-25T11:36:56;6.05;;;2.67;;
67554;SDS011;54385;53.516;49.456;2023-04-25T11:39:39;8.70;;;2.92;;
67554;SDS011;54385;53.516;49.456;2023-04-25T11:42:09;6.38;;;2.65;;
67554;SDS011;54385;53.516;49.456;2023-04-25T11:44:39;9.20;;;3.08;;
67554;SDS011;54385;53.516;49.456;2023-04-25T11:47:12;7.30;;;3.10;;
67554;SDS011;54385;53.516;49.456;2023-04-25T11:49:38;6.68;;;3.13;;
67554;SDS011;54385;53.516;49.456;2023-04-25T11:52:20;11.00;;;3.88;;
67554;SDS011;54385;53.516;49.456;2023-04-25T11:54:53;8.45;;;3.13;;
67554;SDS011;54385;53.516;49.456;2023-04-25T11:57:21;8.18;;;3.95;;
67554;SDS011;54385;53.516;49.456;2023-04-25T11:59:48;8.75;;;2.90;;
67554;SDS011;54385;53.516;49.456;2023-04-25T12:02:24;5.93;;;3.70;;
67554;SDS011;54385;53.516;49.456;2023-04-25T12:05:01;5.70;;;3.55;;
67554;SDS011;54385;53.516;49.456;2023-04-25T12:07:35;10.40;;;3.55;;
67554;SDS011;54385;53.516;49.456;2023-04-25T12:10:10;6.68;;;2.80;;
67554;SDS011;54385;53.516;49.456;2023-04-25T12:12:38;5.65;;;3.30;;
67554;SDS011;54385;53.516;49.456;2023-04-25T12:15:15;5.40;;;3.03;;
67554;SDS011;54385;53.516;49.456;2023-04-25T12:17:48;6.65;;;3.15;;
67554;SDS011;54385;53.516;49.456;2023-04-25T12:20:26;7.78;;;3.92;;
67554;SDS011;54385;53.516;49.456;2023-04-25T12:22:56;8.05;;;3.42;;
67554;SDS011;54385;53.516;49.456;2023-04-25T12:25:42;8.55;;;5.00;;
67554;SDS011;54385;53.516;49.456;2023-04-25T12:28:22;10.57;;;5.10;;
67554;SDS011;54385;53.516;49.456;2023-04-25T12:30:53;8.60;;;5.03;;
67554;SDS011;54385;53.516;49.456;2023-04-25T12:33:33;10.35;;;5.13;;
67554;SDS011;54385;53.516;49.456;2023-04-25T12:36:07;7.63;;;4.38;;
67554;SDS011;54385;53.516;49.456;2023-04-25T12:38:44;12.02;;;4.80;;
67554;SDS011;54385;53.516;49.456;2023-04-25T12:41:11;10.82;;;4.90;;
67554;SDS011;54385;53.516;49.456;2023-04-25T12:43:38;9.70;;;5.90;;
67554;SDS011;54385;53.516;49.456;2023-04-25T12:46:07;10.63;;;5.28;;
67554;SDS011;54385;53.516;49.456;2023-04-25T12:48:34;11.57;;;4.80;;
67554;SDS011;54385;53.516;49.456;2023-04-25T12:51:04;12.07;;;5.35;;
67554;SDS011;54385;53.516;49.456;2023-04-25T12:53:40;16.80;;;6.47;;
67554;SDS011;54385;53.516;49.456;2023-04-25T12:56:10;16.88;;;6.65;;
67554;SDS011;54385;53.516;49.456;2023-04-25T12:58:45;11.63;;;5.55;;
67554;SDS011;54385;53.516;49.456;2023-04-25T13:01:30;12.85;;;5.70;;
67554;SDS011;54385;53.516;49.456;2023-04-25T13:04:20;12.43;;;7.07;;
67554;SDS011;54385;53.516;49.456;2023-04-25T13:06:47;13.27;;;5.07;;
67554;SDS011;54385;53.516;49.456;2023-04-25T13:09:16;6.57;;;4.10;;
67554;SDS011;54385;53.516;49.456;2023-04-25T13:11:43;10.85;;;4.13;;
67554;SDS011;54385;53.516;49.456;2023-04-25T13:14:12;12.32;;;6.07;;
67554;SDS011;54385;53.516;49.456;2023-04-25T13:16:52;8.20;;;5.05;;
67554;SDS011;54385;53.516;49.456;2023-04-25T13:19:27;12.57;;;4.63;;
67554;SDS011;54385;53.516;49.456;2023-04-25T13:21:58;13.13;;;5.90;;
67554;SDS011;54385;53.516;49.456;2023-04-25T13:24:25;16.00;;;8.10;;
67554;SDS011;54385;53.516;49.456;2023-04-25T13:26:52;16.98;;;11.02;;
67554;SDS011;54385;53.516;49.456;2023-04-25T13:29:19;13.57;;;9.93;;
67554;SDS011;54385;53.516;49.456;2023-04-25T13:31:52;14.85;;;8.20;;
67554;SDS011;54385;53.516;49.456;2023-04-25T13:34:30;11.32;;;8.27;;
67554;SDS011;54385;53.516;49.456;2023-04-25T13:36:57;11.77;;;6.18;;
67554;SDS011;54385;53.516;49.456;2023-04-25T13:42:08;13.63;;;6.18;;
67554;SDS011;54385;53.516;49.456;2023-04-25T13:48:41;13.10;;;6.63;;
67554;SDS011;54385;53.516;49.456;2023-04-25T13:51:15;8.95;;;5.60;;
67554;SDS011;54385;53.516;49.456;2023-04-25T13:53:43;11.48;;;6.65;;
67554;SDS011;54385;53.516;49.456;2023-04-25T13:56:11;12.98;;;6.32;;
67554;SDS011;54385;53.516;49.456;2023-04-25T13:58:39;11.32;;;5.78;;
67554;SDS011;54385;53.516;49.456;2023-04-25T14:01:13;11.60;;;5.63;;
67554;SDS011;54385;53.516;49.456;2023-04-25T14:03:40;9.88;;;5.70;;
67554;SDS011;54385;53.516;49.456;2023-04-25T14:06:08;14.45;;;6.03;;
67554;SDS011;54385;53.516;49.456;2023-04-25T14:08:38;9.38;;;5.40;;
67554;SDS011;54385;53.516;49.456;2023-04-25T14:11:05;12.00;;;5.65;;
67554;SDS011;54385;53.516;49.456;2023-04-25T14:13:32;11.00;;;5.45;;
67554;SDS011;54385;53.516;49.456;2023-04-25T14:15:59;14.20;;;6.03;;
67554;SDS011;54385;53.516;49.456;2023-04-25T14:18:26;9.30;;;5.68;;
67554;SDS011;54385;53.516;49.456;2023-04-25T14:20:53;16.63;;;7.20;;
67554;SDS011;54385;53.516;49.456;2023-04-25T14:23:21;16.38;;;9.60;;
67554;SDS011;54385;53.516;49.456;2023-04-25T14:25:49;11.13;;;6.93;;
67554;SDS011;54385;53.516;49.456;2023-04-25T14:28:16;13.40;;;7.07;;
67554;SDS011;54385;53.516;49.456;2023-04-25T14:30:42;13.55;;;8.25;;
67554;SDS011;54385;53.516;49.456;2023-04-25T14:33:09;15.10;;;7.95;;
67554;SDS011;54385;53.516;49.456;2023-04-25T14:35:42;13.60;;;7.70;;
67554;SDS011;54385;53.516;49.456;2023-04-25T14:38:09;12.73;;;6.85;;
67554;SDS011;54385;53.516;49.456;2023-04-25T14:40:36;13.52;;;6.60;;
67554;SDS011;54385;53.516;49.456;2023-04-25T14:43:04;10.27;;;5.68;;
67554;SDS011;54385;53.516;49.456;2023-04-25T14:45:31;11.25;;;6.25;;
67554;SDS011;54385;53.516;49.456;2023-04-25T14:48:04;11.57;;;6.20;;
67554;SDS011;54385;53.516;49.456;2023-04-25T14:50:30;10.25;;;6.28;;
67554;SDS011;54385;53.516;49.456;2023-04-25T14:52:57;12.35;;;7.38;;
67554;SDS011;54385;53.516;49.456;2023-04-25T14:55:26;14.80;;;8.30;;
67554;SDS011;54385;53.516;49.456;2023-04-25T14:57:53;15.70;;;8.82;;
67554;SDS011;54385;53.516;49.456;2023-04-25T15:00:21;12.32;;;8.18;;
67554;SDS011;54385;53.516;49.456;2023-04-25T15:02:48;13.30;;;9.20;;
67554;SDS011;54385;53.516;49.456;2023-04-25T15:05:15;13.63;;;8.30;;
67554;SDS011;54385;53.516;49.456;2023-04-25T15:07:41;13.52;;;7.13;;
67554;SDS011;54385;53.516;49.456;2023-04-25T15:10:11;15.30;;;7.78;;
67554;SDS011;54385;53.516;49.456;2023-04-25T15:12:41;10.88;;;6.18;;
67554;SDS011;54385;53.516;49.456;2023-04-25T15:15:11;13.43;;;6.57;;
67554;SDS011;54385;53.516;49.456;2023-04-25T15:17:41;8.73;;;5.13;;
67554;SDS011;54385;53.516;49.456;2023-04-25T15:20:08;9.02;;;5.45;;
67554;SDS011;54385;53.516;49.456;2023-04-25T15:22:36;9.57;;;5.70;;
67554;SDS011;54385;53.516;49.456;2023-04-25T15:25:04;8.68;;;5.57;;
67554;SDS011;54385;53.516;49.456;2023-04-25T15:27:33;8.07;;;5.60;;
67554;SDS011;54385;53.516;49.456;2023-04-25T15:30:13;12.30;;;6.93;;